sensor_id;sensor_type;location;lat;lon;timestamp;pressure;altitude;pressure_sealevel;temperature;humidity
11212;BME280;5663;50.864;12.096;2022-08-21T00:01:52;99391.50;;;20.69;76.10
11212;BME280;5663;50.864;12.096;2022-08-21T00:05:02;99392.59;;;20.66;76.10
11212;BME280;5663;50.864;12.096;2022-08-21T00:07:52;99394.56;;;20.64;75.53
11212;BME280;5663;50.864;12.096;2022-08-21T00:11:10;99385.25;;;20.60;75.44
11212;BME280;5663;50.864;12.096;2022-08-21T00:13:41;99360.38;;;20.43;75.79
11212;BME280;5663;50.864;12.096;2022-08-21T00:16:12;99381.78;;;20.59;75.53
11212;BME280;5663;50.864;12.096;2022-08-21T00:18:46;99388.03;;;20.58;75.65
11212;BME280;5663;50.864;12.096;2022-08-21T00:21:19;99375.94;;;20.56;76.04
11212;BME280;5663;50.864;12.096;2022-08-21T00:24:01;99380.69;;;20.52;76.32
11212;BME280;5663;50.864;12.096;2022-08-21T00:26:33;99377.22;;;20.52;76.80
11212;BME280;5663;50.864;12.096;2022-08-21T00:29:14;99368.97;;;20.45;76.58
11212;BME280;5663;50.864;12.096;2022-08-21T00:31:51;99382.88;;;20.47;76.46
11212;BME280;5663;50.864;12.096;2022-08-21T00:34:21;99388.44;;;20.44;76.03
11212;BME280;5663;50.864;12.096;2022-08-21T00:36:57;99363.69;;;20.26;76.05
11212;BME280;5663;50.864;12.096;2022-08-21T00:39:32;99296.03;;;19.86;75.28
11212;BME280;5663;50.864;12.096;2022-08-21T00:42:07;99383.44;;;20.41;75.29
11212;BME280;5663;50.864;12.096;2022-08-21T00:44:44;99367.72;;;20.30;75.62
11212;BME280;5663;50.864;12.096;2022-08-21T00:47:21;99378.44;;;20.38;75.63
11212;BME280;5663;50.864;12.096;2022-08-21T00:49:59;99380.38;;;20.36;75.88
11212;BME280;5663;50.864;12.096;2022-08-21T00:52:42;99302.31;;;19.85;75.92
11212;BME280;5663;50.864;12.096;2022-08-21T00:55:19;99384.28;;;20.32;76.20
11212;BME280;5663;50.864;12.096;2022-08-21T00:57:58;99386.09;;;20.31;76.20
11212;BME280;5663;50.864;12.096;2022-08-21T01:00:42;99387.91;;;20.31;75.51
11212;BME280;5663;50.864;12.096;2022-08-21T01:03:20;99393.47;;;20.28;75.50
11212;BME280;5663;50.864;12.096;2022-08-21T01:05:56;99402.38;;;20.27;75.73
11212;BME280;5663;50.864;12.096;2022-08-21T01:08:37;99396.38;;;20.25;75.76
11212;BME280;5663;50.864;12.096;2022-08-21T01:11:17;99387.47;;;20.26;76.21
11212;BME280;5663;50.864;12.096;2022-08-21T01:14:20;99400.69;;;20.26;76.64
11212;BME280;5663;50.864;12.096;2022-08-21T01:24:10;99385.41;;;20.20;77.67
11212;BME280;5663;50.864;12.096;2022-08-21T01:26:45;99395.66;;;20.23;78.10
11212;BME280;5663;50.864;12.096;2022-08-21T01:33:17;99382.75;;;20.20;78.30
11212;BME280;5663;50.864;12.096;2022-08-21T01:36:29;99389.56;;;20.22;78.31
11212;BME280;5663;50.864;12.096;2022-08-21T01:42:36;99370.09;;;20.13;78.10
11212;BME280;5663;50.864;12.096;2022-08-21T01:45:25;99376.78;;;20.17;78.23
11212;BME280;5663;50.864;12.096;2022-08-21T01:55:28;99355.94;;;20.05;77.81
11212;BME280;5663;50.864;12.096;2022-08-21T01:58:05;99362.31;;;20.02;77.89
11212;BME280;5663;50.864;12.096;2022-08-21T02:00:49;99355.63;;;19.98;77.99
11212;BME280;5663;50.864;12.096;2022-08-21T02:03:27;99357.59;;;19.96;77.95
11212;BME280;5663;50.864;12.096;2022-08-21T02:06:01;99354.41;;;19.92;77.69
11212;BME280;5663;50.864;12.096;2022-08-21T02:08:37;99351.47;;;19.86;77.47
11212;BME280;5663;50.864;12.096;2022-08-21T02:11:11;99355.66;;;19.88;76.98
11212;BME280;5663;50.864;12.096;2022-08-21T02:13:46;99368.13;;;19.86;76.50
11212;BME280;5663;50.864;12.096;2022-08-21T02:16:31;99345.06;;;19.69;76.04
11212;BME280;5663;50.864;12.096;2022-08-21T02:19:06;99361.34;;;19.84;76.42
11212;BME280;5663;50.864;12.096;2022-08-21T02:21:57;99370.34;;;19.81;75.93
11212;BME280;5663;50.864;12.096;2022-08-21T02:24:32;99373.16;;;19.80;75.48
11212;BME280;5663;50.864;12.096;2022-08-21T02:27:21;99374.25;;;19.77;75.65
11212;BME280;5663;50.864;12.096;2022-08-21T02:30:06;99365.75;;;19.74;75.50
11212;BME280;5663;50.864;12.096;2022-08-21T02:32:38;99342.78;;;19.55;75.46
11212;BME280;5663;50.864;12.096;2022-08-21T02:35:11;99375.06;;;19.68;75.26
11212;BME280;5663;50.864;12.096;2022-08-21T02:38:35;99379.53;;;19.67;74.76
11212;BME280;5663;50.864;12.096;2022-08-21T02:41:58;99372.84;;;19.63;75.09
11212;BME280;5663;50.864;12.096;2022-08-21T02:44:33;99376.69;;;19.59;75.69
11212;BME280;5663;50.864;12.096;2022-08-21T02:50:46;99367.50;;;19.54;75.41
11212;BME280;5663;50.864;12.096;2022-08-21T02:53:22;99373.03;;;19.51;75.30
11212;BME280;5663;50.864;12.096;2022-08-21T02:56:05;99375.00;;;19.49;75.60
11212;BME280;5663;50.864;12.096;2022-08-21T02:58:46;99375.25;;;19.45;75.77
11212;BME280;5663;50.864;12.096;2022-08-21T03:01:22;99369.41;;;19.42;76.04
11212;BME280;5663;50.864;12.096;2022-08-21T03:04:08;99374.97;;;19.39;76.12
11212;BME280;5663;50.864;12.096;2022-08-21T03:06:40;99377.16;;;19.34;75.96
11212;BME280;5663;50.864;12.096;2022-08-21T03:09:14;99374.53;;;19.34;76.37
11212;BME280;5663;50.864;12.096;2022-08-21T03:11:46;99377.16;;;19.34;76.47
11212;BME280;5663;50.864;12.096;2022-08-21T03:14:22;99370.22;;;19.33;76.72
11212;BME280;5663;50.864;12.096;2022-08-21T03:17:29;99375.50;;;19.33;76.82
11212;BME280;5663;50.864;12.096;2022-08-21T03:20:27;99375.81;;;19.39;77.21
11212;BME280;5663;50.864;12.096;2022-08-21T03:23:02;99378.28;;;19.41;77.52
11212;BME280;5663;50.864;12.096;2022-08-21T03:25:36;99373.03;;;19.41;77.72
11212;BME280;5663;50.864;12.096;2022-08-21T03:28:18;99378.03;;;19.44;77.79
11212;BME280;5663;50.864;12.096;2022-08-21T03:30:58;99373.75;;;19.43;77.94
11212;BME280;5663;50.864;12.096;2022-08-21T03:33:57;99378.28;;;19.41;77.61
11212;BME280;5663;50.864;12.096;2022-08-21T03:36:34;99382.75;;;19.40;77.49
11212;BME280;5663;50.864;12.096;2022-08-21T03:39:06;99383.84;;;19.38;77.09
11212;BME280;5663;50.864;12.096;2022-08-21T03:41:39;99380.50;;;19.36;76.93
11212;BME280;5663;50.864;12.096;2022-08-21T03:44:12;99387.72;;;19.34;77.28
11212;BME280;5663;50.864;12.096;2022-08-21T03:50:36;99383.66;;;19.30;76.80
11212;BME280;5663;50.864;12.096;2022-08-21T03:53:15;99378.66;;;19.27;76.90
11212;BME280;5663;50.864;12.096;2022-08-21T03:55:48;99385.16;;;19.23;77.03
11212;BME280;5663;50.864;12.096;2022-08-21T03:58:26;99391.56;;;19.20;77.35
11212;BME280;5663;50.864;12.096;2022-08-21T04:01:18;99387.25;;;19.19;77.26
11212;BME280;5663;50.864;12.096;2022-08-21T04:03:57;99390.97;;;19.16;77.40
11212;BME280;5663;50.864;12.096;2022-08-21T04:06:33;99395.53;;;19.14;76.85
11212;BME280;5663;50.864;12.096;2022-08-21T04:09:10;99401.09;;;19.11;76.81
11212;BME280;5663;50.864;12.096;2022-08-21T04:11:43;99393.44;;;19.08;76.68
11212;BME280;5663;50.864;12.096;2022-08-21T04:14:19;99371.44;;;18.88;76.61
11212;BME280;5663;50.864;12.096;2022-08-21T04:16:57;99399.22;;;19.02;76.32
11212;BME280;5663;50.864;12.096;2022-08-21T04:19:30;99404.66;;;19.01;75.79
11212;BME280;5663;50.864;12.096;2022-08-21T04:22:07;99346.56;;;18.60;75.38
11212;BME280;5663;50.864;12.096;2022-08-21T04:24:43;99406.69;;;18.97;75.64
11212;BME280;5663;50.864;12.096;2022-08-21T04:31:02;99410.56;;;18.93;75.86
11212;BME280;5663;50.864;12.096;2022-08-21T04:33:41;99414.44;;;18.89;76.25
11212;BME280;5663;50.864;12.096;2022-08-21T04:36:17;99370.00;;;18.63;76.56
11212;BME280;5663;50.864;12.096;2022-08-21T04:38:53;99408.81;;;18.82;76.74
11212;BME280;5663;50.864;12.096;2022-08-21T04:45:24;99409.13;;;18.79;76.74
11212;BME280;5663;50.864;12.096;2022-08-21T04:48:11;99410.19;;;18.77;76.70
11212;BME280;5663;50.864;12.096;2022-08-21T04:51:02;99414.50;;;18.78;76.32
11212;BME280;5663;50.864;12.096;2022-08-21T04:53:52;99416.16;;;18.79;76.38
11212;BME280;5663;50.864;12.096;2022-08-21T04:56:50;99420.47;;;18.80;76.58
11212;BME280;5663;50.864;12.096;2022-08-21T04:59:31;99420.47;;;18.80;76.56
11212;BME280;5663;50.864;12.096;2022-08-21T05:06:12;99418.53;;;18.82;76.30
11212;BME280;5663;50.864;12.096;2022-08-21T05:08:53;99422.00;;;18.82;76.59
11212;BME280;5663;50.864;12.096;2022-08-21T05:11:32;99432.44;;;18.84;76.70
11212;BME280;5663;50.864;12.096;2022-08-21T05:14:24;99430.50;;;18.86;76.75
11212;BME280;5663;50.864;12.096;2022-08-21T05:16:57;99437.31;;;18.88;76.96
11212;BME280;5663;50.864;12.096;2022-08-21T05:19:39;99433.56;;;18.91;76.97
11212;BME280;5663;50.864;12.096;2022-08-21T05:22:56;99431.66;;;18.93;77.21
11212;BME280;5663;50.864;12.096;2022-08-21T05:33:57;99438.78;;;19.02;77.75
11212;BME280;5663;50.864;12.096;2022-08-21T05:37:17;99440.06;;;19.08;77.60
11212;BME280;5663;50.864;12.096;2022-08-21T05:44:25;99435.66;;;19.18;78.06
11212;BME280;5663;50.864;12.096;2022-08-21T05:47:32;99423.72;;;19.14;78.54
11212;BME280;5663;50.864;12.096;2022-08-21T05:50:13;99426.66;;;19.20;78.91
11212;BME280;5663;50.864;12.096;2022-08-21T05:52:48;99439.78;;;19.32;79.47
11212;BME280;5663;50.864;12.096;2022-08-21T05:55:50;99432.03;;;19.40;79.65
11212;BME280;5663;50.864;12.096;2022-08-21T05:58:46;99441.09;;;19.47;79.79
11212;BME280;5663;50.864;12.096;2022-08-21T06:09:02;99433.97;;;19.68;79.96
11212;BME280;5663;50.864;12.096;2022-08-21T06:11:43;99416.28;;;19.59;80.39
11212;BME280;5663;50.864;12.096;2022-08-21T06:14:43;99443.69;;;19.78;80.28
11212;BME280;5663;50.864;12.096;2022-08-21T06:21:58;99447.34;;;19.96;80.34
11212;BME280;5663;50.864;12.096;2022-08-21T06:24:55;99449.59;;;20.01;80.24
11212;BME280;5663;50.864;12.096;2022-08-21T06:27:51;99452.38;;;20.09;80.76
11212;BME280;5663;50.864;12.096;2022-08-21T06:30:20;99451.97;;;20.13;81.03
11212;BME280;5663;50.864;12.096;2022-08-21T06:32:53;99450.72;;;20.17;81.05
11212;BME280;5663;50.864;12.096;2022-08-21T06:35:24;99460.75;;;20.24;81.49
11212;BME280;5663;50.864;12.096;2022-08-21T06:37:58;99451.56;;;20.28;81.58
11212;BME280;5663;50.864;12.096;2022-08-21T06:40:36;99430.97;;;20.22;81.14
11212;BME280;5663;50.864;12.096;2022-08-21T06:43:15;99451.84;;;20.44;81.05
11212;BME280;5663;50.864;12.096;2022-08-21T06:45:46;99458.41;;;20.50;80.84
11212;BME280;5663;50.864;12.096;2022-08-21T06:52:27;99460.78;;;20.72;80.75
11212;BME280;5663;50.864;12.096;2022-08-21T06:55:00;99438.53;;;20.75;81.14
11212;BME280;5663;50.864;12.096;2022-08-21T08:14:58;99430.25;;;22.71;67.70
11212;BME280;5663;50.864;12.096;2022-08-21T08:17:57;99422.78;;;22.66;68.49
11212;BME280;5663;50.864;12.096;2022-08-21T08:20:44;99422.13;;;22.72;68.72
11212;BME280;5663;50.864;12.096;2022-08-21T08:23:17;99413.41;;;22.80;66.58
11212;BME280;5663;50.864;12.096;2022-08-21T08:25:50;99401.44;;;22.76;67.28
11212;BME280;5663;50.864;12.096;2022-08-21T08:28:49;99416.50;;;22.93;67.17
11212;BME280;5663;50.864;12.096;2022-08-21T08:32:10;99399.91;;;22.91;66.37
11212;BME280;5663;50.864;12.096;2022-08-21T08:35:21;99416.97;;;23.15;67.17
11212;BME280;5663;50.864;12.096;2022-08-21T08:37:58;99414.38;;;23.23;67.63
11212;BME280;5663;50.864;12.096;2022-08-21T08:41:13;99404.13;;;23.36;66.96
11212;BME280;5663;50.864;12.096;2022-08-21T08:44:37;99394.22;;;23.46;65.71
11212;BME280;5663;50.864;12.096;2022-08-21T08:47:46;99383.94;;;23.43;65.88
11212;BME280;5663;50.864;12.096;2022-08-21T09:00:00;99413.59;;;23.81;60.05
11212;BME280;5663;50.864;12.096;2022-08-21T09:03:36;99406.00;;;23.86;58.99
11212;BME280;5663;50.864;12.096;2022-08-21T09:06:32;99399.38;;;23.90;59.66
11212;BME280;5663;50.864;12.096;2022-08-21T13:13:10;99312.25;;;27.63;44.58
11212;BME280;5663;50.864;12.096;2022-08-21T13:24:46;99302.50;;;27.55;42.58
11212;BME280;5663;50.864;12.096;2022-08-21T14:35:09;99271.09;;;28.28;40.09
11212;BME280;5663;50.864;12.096;2022-08-21T14:37:59;99278.00;;;28.37;41.03
11212;BME280;5663;50.864;12.096;2022-08-21T14:40:48;99272.50;;;28.45;41.98
11212;BME280;5663;50.864;12.096;2022-08-21T15:25:56;99263.63;;;28.17;40.12
11212;BME280;5663;50.864;12.096;2022-08-21T15:32:22;99260.00;;;28.31;40.29
11212;BME280;5663;50.864;12.096;2022-08-21T15:35:15;99249.47;;;28.23;38.55
11212;BME280;5663;50.864;12.096;2022-08-21T15:37:48;99261.19;;;28.22;39.47
11212;BME280;5663;50.864;12.096;2022-08-21T15:40:20;99260.44;;;28.07;38.98
11212;BME280;5663;50.864;12.096;2022-08-21T15:42:57;99225.97;;;27.90;40.76
11212;BME280;5663;50.864;12.096;2022-08-21T15:45:42;99258.44;;;28.15;40.31
11212;BME280;5663;50.864;12.096;2022-08-21T17:15:03;99245.06;;;26.34;46.91
11212;BME280;5663;50.864;12.096;2022-08-21T18:29:23;99281.72;;;23.39;56.98
11212;BME280;5663;50.864;12.096;2022-08-21T21:02:39;99329.25;;;18.88;66.97
11212;BME280;5663;50.864;12.096;2022-08-21T21:05:28;99330.59;;;18.83;67.17
11212;BME280;5663;50.864;12.096;2022-08-21T21:08:08;99328.69;;;18.85;67.21
11212;BME280;5663;50.864;12.096;2022-08-21T21:49:30;99347.97;;;18.22;67.70
